Time;durP1;ratioP1;P1;durP2;ratioP2;P2;SDS_P1;SDS_P2;PMS_P1;PMS_P2;Temp;Humidity;BMP_temperature;BMP_pressure;BME280_temperature;BME280_humidity;BME280_pressure;Samples;Min_cycle;Max_cycle;Signal;HPM_P1;HPM_P2
2022/03/17 00:02:03;;;;;;;19.90;14.90;;;11.70;99.90;;;;;;7394319;19;20127;-75
2022/03/17 00:04:31;;;;;;;20.17;15.70;;;11.60;99.90;;;;;;7396466;19;20146;-74
2022/03/17 00:06:57;;;;;;;20.50;15.60;;;11.60;99.90;;;;;;7392152;19;20165;-76
2022/03/17 00:09:23;;;;;;;22.03;16.57;;;11.60;99.90;;;;;;7393637;19;20135;-75
2022/03/17 00:11:49;;;;;;;21.97;16.60;;;11.70;99.90;;;;;;7394190;19;20139;-73
2022/03/17 00:14:15;;;;;;;22.13;16.60;;;11.70;99.90;;;;;;7391603;19;20474;-73
2022/03/17 00:16:40;;;;;;;23.33;16.80;;;11.60;99.90;;;;;;7391680;19;20147;-73
2022/03/17 00:19:08;;;;;;;20.73;16.13;;;11.60;99.90;;;;;;7392352;19;20135;-75
2022/03/17 00:21:36;;;;;;;20.70;15.87;;;11.50;99.90;;;;;;7392257;19;20135;-75
2022/03/17 00:24:03;;;;;;;19.50;15.80;;;11.50;99.90;;;;;;7394071;19;20131;-75
2022/03/17 00:26:30;;;;;;;20.90;16.03;;;11.50;99.90;;;;;;7390483;19;20149;-74
2022/03/17 00:28:59;;;;;;;21.03;15.40;;;11.40;99.90;;;;;;7388650;19;20564;-75
2022/03/17 00:31:25;;;;;;;21.13;16.27;;;11.50;99.90;;;;;;7393786;19;20151;-74
2022/03/17 00:33:51;;;;;;;22.03;16.40;;;11.50;99.90;;;;;;7389232;19;20134;-74
2022/03/17 00:36:17;;;;;;;23.03;16.07;;;11.40;99.90;;;;;;7389430;19;20148;-75
2022/03/17 00:38:48;;;;;;;21.03;16.77;;;11.40;99.90;;;;;;7390046;19;20516;-75
2022/03/17 00:41:14;;;;;;;22.53;16.83;;;11.50;99.90;;;;;;7390248;19;20143;-74
2022/03/17 00:43:39;;;;;;;24.23;17.03;;;11.40;99.90;;;;;;7389623;19;20673;-75
2022/03/17 00:46:05;;;;;;;21.20;16.00;;;11.50;99.90;;;;;;7389867;19;20553;-76
2022/03/17 00:48:31;;;;;;;22.53;16.73;;;11.50;99.90;;;;;;7389688;19;20166;-74
2022/03/17 00:50:57;;;;;;;22.20;16.87;;;11.50;99.90;;;;;;7387257;19;20134;-75
2022/03/17 00:53:23;;;;;;;22.03;16.63;;;11.20;99.90;;;;;;7391836;19;20122;-75
2022/03/17 00:55:49;;;;;;;21.77;16.57;;;11.20;99.90;;;;;;7392417;19;20558;-74
2022/03/17 00:58:14;;;;;;;21.70;16.10;;;11.00;99.90;;;;;;7388757;19;20169;-75
2022/03/17 01:00:40;;;;;;;20.33;15.83;;;11.10;99.90;;;;;;7391511;19;20810;-73
2022/03/17 01:03:06;;;;;;;19.03;15.43;;;11.20;99.90;;;;;;7390623;19;20499;-75
2022/03/17 01:05:32;;;;;;;21.57;16.03;;;11.30;99.90;;;;;;7389225;19;20130;-74
2022/03/17 01:07:58;;;;;;;20.60;15.87;;;11.40;99.90;;;;;;7388800;19;20228;-74
2022/03/17 01:10:24;;;;;;;22.60;15.80;;;11.40;99.90;;;;;;7389213;19;20131;-76
2022/03/17 01:12:50;;;;;;;20.67;15.83;;;11.20;99.90;;;;;;7389504;19;20511;-74
2022/03/17 01:15:19;;;;;;;21.77;16.47;;;11.30;99.90;;;;;;7389944;19;20138;-74
2022/03/17 01:17:45;;;;;;;21.40;15.57;;;11.20;99.90;;;;;;7390291;19;20131;-74
2022/03/17 01:20:11;;;;;;;22.47;16.00;;;11.20;99.90;;;;;;7389221;19;20138;-75
2022/03/17 01:22:37;;;;;;;20.07;15.47;;;11.30;99.90;;;;;;7389442;19;20130;-75
2022/03/17 01:25:04;;;;;;;21.10;15.70;;;11.30;99.90;;;;;;7391220;19;20224;-75
2022/03/17 01:27:30;;;;;;;21.37;16.17;;;11.30;99.90;;;;;;7388192;19;20149;-74
2022/03/17 01:29:56;;;;;;;21.33;16.57;;;11.40;99.90;;;;;;7393559;19;20154;-75
2022/03/17 01:32:25;;;;;;;23.33;16.70;;;11.20;99.90;;;;;;7391833;19;20134;-75
2022/03/17 01:34:51;;;;;;;24.53;17.80;;;11.30;99.90;;;;;;7390656;19;20142;-75
2022/03/17 01:37:17;;;;;;;20.87;15.73;;;11.40;99.90;;;;;;7389377;19;20130;-75
2022/03/17 01:39:43;;;;;;;21.70;16.57;;;11.30;99.90;;;;;;7391164;19;20474;-74
2022/03/17 01:42:10;;;;;;;22.83;16.67;;;11.10;99.90;;;;;;7389156;19;20141;-76
2022/03/17 01:44:36;;;;;;;22.70;16.93;;;11.00;99.90;;;;;;7388274;19;20158;-75
2022/03/17 01:49:48;;;;;;;19.60;15.70;;;11.10;99.90;;;;;;7389157;19;20143;-74
2022/03/17 01:52:14;;;;;;;22.63;16.67;;;11.10;99.90;;;;;;7388236;19;20139;-75
2022/03/17 01:54:42;;;;;;;23.23;17.00;;;11.20;99.90;;;;;;7387027;19;20158;-73
2022/03/17 01:57:09;;;;;;;23.33;16.53;;;11.20;99.90;;;;;;7388619;19;20441;-75
2022/03/17 01:59:37;;;;;;;22.93;15.87;;;11.20;99.90;;;;;;7387372;19;20451;-75
2022/03/17 02:02:08;;;;;;;21.90;16.00;;;11.20;99.90;;;;;;7387539;19;20613;-75
2022/03/17 02:04:35;;;;;;;21.23;16.23;;;11.20;99.90;;;;;;7392406;19;20163;-75
2022/03/17 02:07:03;;;;;;;21.50;16.10;;;11.10;99.90;;;;;;7387807;19;20888;-75
2022/03/17 02:09:29;;;;;;;23.20;16.20;;;11.10;99.90;;;;;;7385134;19;20150;-74
2022/03/17 02:15:08;;;;;;;22.23;16.40;;;11.00;99.90;;;;;;7386063;19;20142;-74
2022/03/17 02:17:39;;;;;;;20.50;15.27;;;11.10;99.90;;;;;;7388630;19;20154;-74
2022/03/17 02:20:08;;;;;;;24.83;16.57;;;11.10;99.90;;;;;;7390693;19;20147;-74
2022/03/17 02:22:44;;;;;;;23.47;16.63;;;11.10;99.90;;;;;;7387687;19;20153;-75
2022/03/17 02:27:54;;;;;;;23.60;17.03;;;11.20;99.90;;;;;;7385484;19;20159;-75
2022/03/17 02:30:22;;;;;;;21.03;15.93;;;11.20;99.90;;;;;;7389414;19;20151;-74
2022/03/17 02:32:49;;;;;;;21.13;15.47;;;11.20;99.90;;;;;;7389831;19;20250;-74
2022/03/17 02:35:22;;;;;;;20.17;15.07;;;11.20;99.90;;;;;;7387163;19;20165;-74
2022/03/17 02:37:49;;;;;;;21.50;15.73;;;11.10;99.90;;;;;;7386384;19;20582;-74
2022/03/17 02:40:16;;;;;;;22.63;15.80;;;11.10;99.90;;;;;;7387893;19;20135;-75
2022/03/17 02:42:42;;;;;;;21.87;16.47;;;11.10;99.90;;;;;;7391070;19;20137;-74
2022/03/17 02:45:12;;;;;;;22.60;16.07;;;11.00;99.90;;;;;;7387447;19;20127;-74
2022/03/17 02:47:40;;;;;;;21.83;15.50;;;10.90;99.90;;;;;;7388261;19;20134;-75
2022/03/17 02:50:07;;;;;;;22.00;16.00;;;10.90;99.90;;;;;;7389658;19;20134;-76
2022/03/17 02:52:33;;;;;;;20.83;15.03;;;10.90;99.90;;;;;;7387603;19;20127;-74
2022/03/17 02:54:59;;;;;;;20.93;15.97;;;11.00;99.90;;;;;;7385384;19;20508;-75
2022/03/17 02:57:25;;;;;;;19.27;15.37;;;10.80;99.90;;;;;;7387660;19;20134;-75
2022/03/17 02:59:54;;;;;;;22.03;15.73;;;10.70;99.90;;;;;;7386922;19;20605;-75
2022/03/17 03:02:20;;;;;;;21.97;16.10;;;10.90;99.90;;;;;;7384952;19;20130;-74
2022/03/17 03:04:46;;;;;;;22.13;15.63;;;11.00;99.90;;;;;;7384545;19;20130;-75
2022/03/17 03:07:12;;;;;;;21.33;16.03;;;11.00;99.90;;;;;;7383910;19;20163;-74
2022/03/17 03:09:38;;;;;;;21.80;15.97;;;11.00;99.90;;;;;;7385919;19;20611;-74
2022/03/17 03:12:05;;;;;;;23.27;16.07;;;11.00;99.90;;;;;;7386059;19;20127;-75
2022/03/17 03:14:31;;;;;;;21.67;15.80;;;11.10;99.90;;;;;;7389097;19;20134;-76
2022/03/17 03:16:57;;;;;;;20.57;15.37;;;11.10;99.90;;;;;;7384364;19;20206;-74
2022/03/17 03:19:23;;;;;;;21.63;15.73;;;11.10;99.90;;;;;;7387051;19;20134;-74
2022/03/17 03:21:49;;;;;;;21.80;15.70;;;11.10;99.90;;;;;;7383023;19;20143;-75
2022/03/17 03:24:15;;;;;;;21.30;15.60;;;11.20;99.90;;;;;;7387684;19;20618;-74
2022/03/17 03:26:42;;;;;;;23.47;17.23;;;11.10;99.90;;;;;;7382911;19;20135;-74
2022/03/17 03:29:28;;;;;;;21.87;15.37;;;11.10;99.90;;;;;;7384115;19;20133;-74
2022/03/17 03:31:59;;;;;;;22.90;17.27;;;11.10;99.90;;;;;;7383888;19;20150;-74
2022/03/17 03:34:26;;;;;;;23.07;17.53;;;11.00;99.90;;;;;;7385710;19;20590;-74
2022/03/17 03:39:38;;;;;;;24.17;17.03;;;11.10;99.90;;;;;;7388266;19;20123;-74
2022/03/17 03:42:05;;;;;;;23.17;16.90;;;11.10;99.90;;;;;;7385952;19;20130;-74
2022/03/17 03:44:31;;;;;;;23.23;17.43;;;11.20;99.90;;;;;;7386237;19;20634;-75
2022/03/17 03:46:57;;;;;;;24.70;17.20;;;11.10;99.90;;;;;;7384049;19;20170;-74
2022/03/17 03:49:23;;;;;;;22.33;16.60;;;11.20;99.90;;;;;;7385210;19;20134;-74
2022/03/17 03:51:50;;;;;;;25.57;17.50;;;11.10;99.90;;;;;;7385823;19;20159;-74
2022/03/17 03:54:16;;;;;;;22.80;16.60;;;11.10;99.90;;;;;;7384175;19;20157;-75
2022/03/17 03:56:53;;;;;;;24.93;17.30;;;11.10;99.90;;;;;;7384057;19;20882;-74
2022/03/17 03:59:22;;;;;;;26.17;18.00;;;11.10;99.90;;;;;;7386064;19;20138;-74
2022/03/17 04:01:56;;;;;;;24.37;16.63;;;11.10;99.90;;;;;;7385716;19;20134;-75
2022/03/17 04:04:23;;;;;;;23.80;17.17;;;11.10;99.90;;;;;;7383896;19;20156;-76
2022/03/17 04:07:01;;;;;;;23.10;17.47;;;11.10;99.90;;;;;;7384635;19;20134;-75
2022/03/17 04:09:29;;;;;;;21.67;15.50;;;11.20;99.90;;;;;;7384556;19;20865;-74
2022/03/17 04:11:56;;;;;;;21.53;16.27;;;11.10;99.90;;;;;;7383201;19;20143;-75
2022/03/17 04:14:22;;;;;;;21.43;15.87;;;11.10;99.90;;;;;;7384799;19;20135;-74
2022/03/17 04:16:49;;;;;;;26.07;17.17;;;11.10;99.90;;;;;;7382841;19;20131;-74
2022/03/17 04:19:18;;;;;;;24.30;17.47;;;11.00;99.90;;;;;;7385049;19;20131;-74
2022/03/17 04:21:46;;;;;;;24.57;17.80;;;11.00;99.90;;;;;;7382748;19;20575;-74
2022/03/17 04:24:12;;;;;;;23.20;17.20;;;11.00;99.90;;;;;;7386073;19;20134;-74
2022/03/17 04:26:38;;;;;;;23.83;16.13;;;11.00;99.90;;;;;;7382117;19;20149;-73
2022/03/17 04:29:04;;;;;;;24.10;17.67;;;11.00;99.90;;;;;;7380695;19;20172;-74
2022/03/17 04:31:29;;;;;;;26.70;17.83;;;11.10;99.90;;;;;;7381100;19;20170;-74
2022/03/17 04:33:56;;;;;;;23.70;16.97;;;11.10;99.90;;;;;;7390233;19;20133;-74
2022/03/17 04:36:22;;;;;;;24.57;17.80;;;11.00;99.90;;;;;;7391281;19;20134;-74
2022/03/17 04:38:49;;;;;;;26.60;17.50;;;11.10;99.90;;;;;;7391243;19;20475;-75
2022/03/17 04:41:17;;;;;;;27.33;18.37;;;11.10;99.90;;;;;;7389915;19;20165;-74
2022/03/17 04:43:43;;;;;;;22.83;15.90;;;11.00;99.90;;;;;;7389920;19;20130;-74
2022/03/17 04:46:08;;;;;;;23.63;16.70;;;11.00;99.90;;;;;;7389758;19;20486;-74
2022/03/17 04:48:35;;;;;;;23.80;16.90;;;11.10;99.90;;;;;;7396085;19;20569;-75
2022/03/17 04:51:02;;;;;;;24.93;17.90;;;11.00;99.90;;;;;;7388394;19;20131;-73
2022/03/17 04:53:29;;;;;;;26.70;17.83;;;11.00;99.90;;;;;;7390138;19;20731;-74
2022/03/17 04:55:58;;;;;;;24.43;17.40;;;10.90;99.90;;;;;;7388672;19;20573;-75
2022/03/17 04:58:24;;;;;;;24.83;17.63;;;11.00;99.90;;;;;;7389079;19;20139;-74
2022/03/17 05:00:52;;;;;;;25.17;16.50;;;11.00;99.90;;;;;;7390618;19;20138;-75
2022/03/17 05:03:19;;;;;;;25.10;17.63;;;10.90;99.90;;;;;;7388796;19;20129;-74
2022/03/17 05:05:45;;;;;;;25.70;18.60;;;10.90;99.90;;;;;;7388201;19;20142;-74
2022/03/17 05:08:11;;;;;;;25.97;17.70;;;10.90;99.90;;;;;;7389933;19;20164;-74
2022/03/17 05:10:37;;;;;;;25.53;16.73;;;10.80;99.90;;;;;;7386635;19;20204;-74
2022/03/17 05:13:07;;;;;;;25.03;17.53;;;10.80;99.90;;;;;;7388352;19;20195;-73
2022/03/17 05:15:34;;;;;;;23.27;16.80;;;10.80;99.90;;;;;;7390214;19;20486;-74
2022/03/17 05:18:00;;;;;;;24.37;16.83;;;10.80;99.90;;;;;;7389299;19;20258;-74
2022/03/17 05:20:26;;;;;;;24.00;17.30;;;10.80;99.90;;;;;;7388785;19;20157;-72
2022/03/17 05:22:52;;;;;;;23.27;17.20;;;10.90;99.90;;;;;;7388236;19;20477;-75
2022/03/17 05:25:19;;;;;;;25.73;17.03;;;10.80;99.90;;;;;;7389118;19;20583;-74
2022/03/17 05:27:46;;;;;;;25.57;16.37;;;10.80;99.90;;;;;;7386982;19;20135;-74
2022/03/17 05:30:14;;;;;;;26.93;18.10;;;10.80;99.90;;;;;;7390098;19;20142;-74
2022/03/17 05:32:41;;;;;;;26.70;17.43;;;10.80;99.90;;;;;;7388061;19;20153;-74
2022/03/17 05:35:08;;;;;;;23.00;17.10;;;10.80;99.90;;;;;;7390261;19;20131;-74
2022/03/17 05:37:37;;;;;;;23.47;16.93;;;10.90;99.90;;;;;;7387100;19;20134;-75
2022/03/17 05:40:05;;;;;;;26.60;18.40;;;10.70;99.90;;;;;;7390418;19;20630;-74
2022/03/17 05:42:32;;;;;;;26.63;17.87;;;10.80;99.90;;;;;;7387861;19;20646;-74
2022/03/17 05:44:59;;;;;;;26.53;17.17;;;10.80;99.90;;;;;;7387716;19;20674;-73
2022/03/17 05:47:25;;;;;;;25.30;17.13;;;10.70;99.90;;;;;;7387070;19;20150;-74
2022/03/17 05:49:51;;;;;;;25.20;17.93;;;10.70;99.90;;;;;;7386442;19;20606;-75
2022/03/17 05:52:16;;;;;;;26.03;17.43;;;10.70;99.90;;;;;;7390453;19;20130;-74
2022/03/17 05:54:44;;;;;;;23.67;16.97;;;10.80;99.90;;;;;;7387182;19;20149;-75
2022/03/17 05:57:10;;;;;;;27.63;17.50;;;10.80;99.90;;;;;;7389893;19;20134;-74
2022/03/17 05:59:39;;;;;;;26.33;18.60;;;10.80;99.90;;;;;;7387388;19;20748;-75
2022/03/17 06:02:05;;;;;;;29.37;18.87;;;10.80;99.90;;;;;;7387014;19;20151;-74
2022/03/17 06:04:31;;;;;;;27.13;17.10;;;10.80;99.90;;;;;;7387829;19;20138;-75
2022/03/17 06:06:57;;;;;;;24.60;18.23;;;10.70;99.90;;;;;;7385921;19;20151;-76
2022/03/17 06:09:23;;;;;;;24.43;17.37;;;10.80;99.90;;;;;;7386983;19;20133;-75
2022/03/17 06:11:48;;;;;;;26.73;18.07;;;10.80;99.90;;;;;;7386964;19;20150;-73
2022/03/17 06:14:14;;;;;;;26.03;18.37;;;10.90;99.90;;;;;;7387440;19;20138;-75
2022/03/17 06:16:40;;;;;;;26.00;17.77;;;10.80;99.90;;;;;;7386443;19;20145;-73
2022/03/17 06:19:06;;;;;;;26.90;17.80;;;10.80;99.90;;;;;;7388352;19;20602;-74
2022/03/17 06:21:33;;;;;;;26.53;18.23;;;10.80;99.90;;;;;;7386984;19;20139;-74
2022/03/17 06:24:00;;;;;;;24.70;17.07;;;10.90;99.90;;;;;;7391282;19;20167;-74
2022/03/17 06:26:26;;;;;;;25.93;17.27;;;10.90;99.90;;;;;;7386139;19;20127;-74
2022/03/17 06:28:52;;;;;;;24.93;16.90;;;11.00;99.90;;;;;;7386923;19;20575;-74
2022/03/17 06:31:19;;;;;;;24.13;17.63;;;10.90;99.90;;;;;;7385329;19;20145;-74
2022/03/17 06:33:45;;;;;;;25.23;18.07;;;10.90;99.90;;;;;;7388441;19;20147;-75
2022/03/17 06:36:13;;;;;;;28.37;18.53;;;10.80;99.90;;;;;;7384460;19;20130;-74
2022/03/17 06:38:39;;;;;;;25.87;18.20;;;10.90;99.90;;;;;;7386997;19;20158;-74
2022/03/17 06:41:05;;;;;;;28.20;16.97;;;10.90;99.90;;;;;;7387541;19;20209;-75
2022/03/17 06:43:30;;;;;;;27.23;17.57;;;10.90;99.90;;;;;;7385477;19;20255;-75
2022/03/17 06:45:56;;;;;;;23.83;17.47;;;10.80;99.90;;;;;;7385160;19;20499;-75
2022/03/17 06:48:22;;;;;;;26.40;18.30;;;11.00;99.90;;;;;;7386347;19;20162;-74
2022/03/17 06:50:48;;;;;;;24.80;17.27;;;11.00;99.90;;;;;;7386756;19;20138;-75
2022/03/17 06:53:14;;;;;;;27.10;17.83;;;11.00;99.90;;;;;;7387646;19;20142;-76
2022/03/17 06:55:39;;;;;;;23.43;17.10;;;10.80;99.90;;;;;;7386417;19;20141;-74
2022/03/17 06:58:05;;;;;;;25.63;18.50;;;11.00;99.90;;;;;;7387732;19;20521;-75
2022/03/17 07:00:31;;;;;;;28.80;19.37;;;11.10;99.90;;;;;;7388269;19;20139;-74
2022/03/17 07:02:57;;;;;;;25.63;17.50;;;11.10;99.90;;;;;;7387109;19;20150;-75
2022/03/17 07:05:22;;;;;;;25.33;17.80;;;11.20;99.90;;;;;;7387716;19;20198;-74
2022/03/17 07:07:48;;;;;;;25.57;18.93;;;11.20;99.90;;;;;;7385035;19;20126;-73
2022/03/17 07:10:15;;;;;;;28.80;19.03;;;11.30;99.90;;;;;;7387511;19;20155;-75
2022/03/17 07:12:43;;;;;;;29.27;19.47;;;11.30;99.90;;;;;;7385952;19;20134;-75
2022/03/17 07:15:10;;;;;;;29.50;19.07;;;11.30;99.90;;;;;;7387567;19;20444;-74
2022/03/17 07:17:40;;;;;;;31.83;20.30;;;11.30;99.90;;;;;;7388261;19;20147;-74
2022/03/17 07:20:09;;;;;;;29.57;19.37;;;11.20;99.90;;;;;;7385554;19;20167;-75
2022/03/17 07:22:34;;;;;;;26.57;18.93;;;11.20;99.90;;;;;;7384232;19;20625;-75
2022/03/17 07:25:02;;;;;;;28.70;20.17;;;11.30;99.90;;;;;;7387983;19;20139;-75
2022/03/17 07:27:31;;;;;;;30.10;22.57;;;11.40;99.90;;;;;;7387891;19;20589;-76
2022/03/17 07:29:57;;;;;;;27.57;19.70;;;11.40;99.90;;;;;;7385500;19;20170;-74
2022/03/17 07:32:25;;;;;;;28.00;18.27;;;11.40;99.90;;;;;;7388646;19;20137;-76
2022/03/17 07:34:51;;;;;;;27.07;18.20;;;11.50;99.90;;;;;;7386362;19;20135;-75
2022/03/17 07:37:18;;;;;;;28.77;18.83;;;11.50;99.90;;;;;;7387750;19;20624;-75
2022/03/17 07:39:44;;;;;;;26.07;18.80;;;11.20;99.90;;;;;;7386023;19;20325;-76
2022/03/17 07:42:10;;;;;;;29.80;19.67;;;11.10;99.90;;;;;;7386277;19;20150;-75
2022/03/17 07:44:37;;;;;;;31.30;21.43;;;11.30;99.90;;;;;;7383445;19;20170;-72
2022/03/17 07:47:06;;;;;;;29.93;20.43;;;11.30;99.90;;;;;;7386009;19;20134;-75
2022/03/17 07:49:32;;;;;;;28.43;20.33;;;11.40;99.90;;;;;;7385534;19;20126;-75
2022/03/17 07:51:58;;;;;;;29.17;18.47;;;11.50;99.90;;;;;;7386821;19;20160;-75
2022/03/17 07:54:24;;;;;;;26.40;18.87;;;11.50;99.90;;;;;;7386308;19;20145;-74
2022/03/17 07:56:50;;;;;;;26.20;18.33;;;11.50;99.90;;;;;;7383764;19;20135;-74
2022/03/17 07:59:17;;;;;;;29.60;18.87;;;11.40;99.90;;;;;;7386213;19;20150;-74
2022/03/17 08:01:43;;;;;;;27.03;18.67;;;11.50;99.90;;;;;;7383440;19;20138;-75
2022/03/17 08:04:10;;;;;;;30.43;20.30;;;11.40;99.90;;;;;;7389487;19;20141;-76
2022/03/17 08:06:37;;;;;;;28.37;18.17;;;11.50;99.90;;;;;;7386157;19;20614;-75
2022/03/17 08:09:04;;;;;;;27.43;18.87;;;11.50;99.90;;;;;;7391865;19;20897;-76
2022/03/17 08:11:29;;;;;;;27.67;19.63;;;11.60;99.90;;;;;;7390844;19;20210;-75
2022/03/17 08:13:55;;;;;;;28.13;19.13;;;11.70;99.90;;;;;;7392795;19;20234;-75
2022/03/17 08:16:21;;;;;;;24.90;17.67;;;11.70;99.90;;;;;;7393812;19;20645;-75
2022/03/17 08:18:49;;;;;;;26.50;18.23;;;11.60;99.90;;;;;;7394318;19;20474;-75
2022/03/17 08:21:16;;;;;;;25.50;18.67;;;11.60;99.90;;;;;;7393992;19;20422;-76
2022/03/17 08:23:41;;;;;;;28.93;19.23;;;11.60;99.90;;;;;;7394626;19;20151;-75
2022/03/17 08:26:07;;;;;;;26.97;18.23;;;11.60;99.90;;;;;;7393109;19;20161;-75
2022/03/17 08:28:33;;;;;;;26.77;17.97;;;11.40;99.90;;;;;;7390929;19;20139;-76
2022/03/17 08:30:59;;;;;;;28.57;19.20;;;11.50;99.90;;;;;;7391326;19;20572;-75
2022/03/17 08:33:25;;;;;;;26.13;17.83;;;11.50;99.90;;;;;;7394249;19;20138;-76
2022/03/17 08:35:52;;;;;;;26.27;18.83;;;11.70;99.90;;;;;;7393233;19;20134;-74
2022/03/17 08:38:18;;;;;;;29.23;18.57;;;11.80;99.90;;;;;;7394729;19;20510;-74
2022/03/17 08:40:44;;;;;;;26.67;18.40;;;11.80;99.90;;;;;;7392516;19;20226;-75
2022/03/17 08:43:15;;;;;;;31.17;19.23;;;11.70;99.90;;;;;;7393391;19;20131;-75
2022/03/17 08:51:12;;;;;;;27.60;18.73;;;11.60;99.90;;;;;;7390950;19;20135;-75
2022/03/17 08:53:38;;;;;;;28.57;20.03;;;11.60;99.90;;;;;;7393587;19;20218;-76
2022/03/17 08:56:05;;;;;;;27.77;19.13;;;11.70;99.90;;;;;;7388675;19;20152;-75
2022/03/17 08:58:31;;;;;;;26.60;19.00;;;11.60;99.90;;;;;;7392297;19;20154;-75
2022/03/17 09:01:00;;;;;;;27.03;19.37;;;11.70;99.90;;;;;;7390927;19;20748;-74
2022/03/17 09:03:26;;;;;;;26.23;18.70;;;11.90;99.90;;;;;;7393079;19;20145;-74
2022/03/17 09:05:52;;;;;;;27.20;19.77;;;12.00;99.90;;;;;;7389652;19;20244;-74
2022/03/17 09:08:18;;;;;;;29.07;20.17;;;12.00;99.90;;;;;;7391674;19;20139;-75
2022/03/17 09:10:46;;;;;;;27.57;19.00;;;12.00;99.90;;;;;;7386982;19;20173;-74
2022/03/17 09:13:13;;;;;;;27.37;19.23;;;12.00;99.90;;;;;;7389532;19;20621;-74
2022/03/17 09:15:40;;;;;;;26.67;19.20;;;12.10;99.90;;;;;;7389142;19;20134;-74
2022/03/17 09:18:11;;;;;;;29.67;20.07;;;12.00;99.90;;;;;;7387174;19;20142;-74
2022/03/17 09:20:38;;;;;;;27.50;19.20;;;12.00;99.90;;;;;;7391061;19;20134;-74
2022/03/17 09:23:05;;;;;;;28.67;19.97;;;12.10;99.90;;;;;;7391349;19;20147;-75
2022/03/17 09:25:33;;;;;;;26.03;18.37;;;12.10;99.90;;;;;;7390919;19;20155;-75
2022/03/17 09:28:00;;;;;;;29.03;19.73;;;12.20;99.90;;;;;;7391388;19;20163;-73
2022/03/17 09:30:26;;;;;;;30.43;19.23;;;12.30;99.90;;;;;;7388456;19;20150;-74
2022/03/17 09:32:54;;;;;;;25.27;18.27;;;12.40;99.90;;;;;;7391670;19;20637;-74
2022/03/17 09:35:21;;;;;;;23.67;17.07;;;12.40;99.90;;;;;;7391125;19;20147;-75
2022/03/17 09:37:47;;;;;;;25.27;18.67;;;12.50;99.90;;;;;;7389628;19;20140;-74
2022/03/17 09:40:13;;;;;;;28.73;18.77;;;12.40;99.90;;;;;;7392885;19;20131;-75
2022/03/17 09:42:40;;;;;;;29.47;19.57;;;12.40;99.90;;;;;;7395060;19;20127;-76
2022/03/17 09:45:09;;;;;;;30.33;18.07;;;12.40;99.90;;;;;;7391258;19;20170;-73
2022/03/17 09:47:46;;;;;;;25.13;18.23;;;12.50;99.90;;;;;;7390355;19;20806;-75
2022/03/17 09:50:30;;;;;;;27.20;18.00;;;12.50;99.90;;;;;;7390099;19;20131;-75
2022/03/17 09:52:55;;;;;;;27.03;18.83;;;12.50;99.90;;;;;;7389196;19;20142;-75
2022/03/17 09:55:22;;;;;;;27.37;18.27;;;12.60;99.90;;;;;;7389760;19;20131;-75
2022/03/17 09:57:48;;;;;;;26.60;18.43;;;12.60;99.90;;;;;;7390945;19;20138;-74
2022/03/17 10:00:15;;;;;;;26.00;18.30;;;12.60;99.90;;;;;;7391584;19;20144;-74
2022/03/17 10:02:41;;;;;;;24.47;17.30;;;12.50;99.90;;;;;;7390149;19;20224;-75
2022/03/17 10:05:11;;;;;;;29.27;18.87;;;12.60;99.90;;;;;;7390079;19;20170;-74
2022/03/17 10:07:38;;;;;;;25.13;17.40;;;12.60;99.90;;;;;;7390694;19;20173;-75
2022/03/17 10:10:05;;;;;;;26.03;17.53;;;12.70;99.90;;;;;;7389369;19;20154;-75
2022/03/17 10:12:31;;;;;;;23.50;17.83;;;12.70;99.90;;;;;;7391942;19;20141;-75
2022/03/17 10:14:58;;;;;;;28.70;18.43;;;12.70;99.90;;;;;;7391179;19;20534;-73
2022/03/17 10:17:41;;;;;;;28.50;18.60;;;12.80;99.90;;;;;;7385389;19;20139;-74
2022/03/17 10:20:27;;;;;;;28.70;19.73;;;12.80;99.90;;;;;;7387144;19;20503;-75
2022/03/17 10:22:56;;;;;;;22.57;16.83;;;12.80;99.90;;;;;;7385790;19;20163;-74
2022/03/17 10:25:30;;;;;;;27.03;18.90;;;12.80;99.90;;;;;;7385274;19;20143;-73
2022/03/17 10:27:57;;;;;;;26.10;18.27;;;12.90;99.90;;;;;;7384966;19;20169;-73
2022/03/17 10:30:32;;;;;;;31.17;19.60;;;12.80;99.90;;;;;;7384630;19;20155;-76
2022/03/17 10:33:04;;;;;;;29.70;19.43;;;12.80;99.90;;;;;;7389210;19;20134;-74
2022/03/17 10:35:35;;;;;;;28.30;19.67;;;12.70;99.90;;;;;;7389250;19;20147;-74
2022/03/17 10:38:18;;;;;;;32.37;18.57;;;12.80;99.90;;;;;;7385528;19;20134;-75
2022/03/17 10:40:59;;;;;;;26.70;18.33;;;12.90;99.90;;;;;;7390199;19;20159;-74
2022/03/17 10:43:25;;;;;;;27.90;19.60;;;12.90;99.90;;;;;;7386822;19;20142;-74
2022/03/17 10:46:29;;;;;;;25.37;18.17;;;13.00;99.90;;;;;;7387033;19;20785;-74
2022/03/17 10:48:59;;;;;;;30.07;19.30;;;12.90;99.90;;;;;;7382655;19;20186;-74
2022/03/17 10:51:44;;;;;;;24.07;18.57;;;13.00;99.90;;;;;;7383200;19;20200;-75
2022/03/17 10:54:20;;;;;;;26.37;18.77;;;13.00;99.90;;;;;;7390642;19;20133;-74
2022/03/17 10:57:08;;;;;;;28.03;18.53;;;13.10;99.90;;;;;;7384228;19;20134;-73
2022/03/17 10:59:43;;;;;;;28.07;18.93;;;13.10;99.90;;;;;;7386303;19;20134;-73
2022/03/17 11:02:13;;;;;;;25.80;17.93;;;13.10;99.90;;;;;;7384861;19;20601;-74
2022/03/17 11:04:41;;;;;;;27.63;18.60;;;13.10;99.90;;;;;;7384987;19;20132;-75
2022/03/17 11:07:13;;;;;;;30.87;19.27;;;13.10;99.90;;;;;;7384759;19;20432;-74
2022/03/17 11:09:42;;;;;;;24.70;17.60;;;13.10;99.90;;;;;;7385812;19;20168;-75
2022/03/17 11:12:09;;;;;;;28.10;18.80;;;13.20;99.90;;;;;;7387078;19;20142;-74
2022/03/17 11:14:46;;;;;;;27.70;18.77;;;13.10;99.90;;;;;;7385186;19;20159;-71
2022/03/17 11:17:17;;;;;;;28.60;19.57;;;13.10;99.90;;;;;;7387319;19;20142;-73
2022/03/17 11:19:44;;;;;;;28.37;18.70;;;13.00;99.90;;;;;;7386939;19;20150;-74
2022/03/17 11:22:21;;;;;;;24.47;18.57;;;13.10;99.90;;;;;;7387078;19;20150;-74
2022/03/17 11:25:17;;;;;;;28.40;21.98;;;13.20;99.90;;;;;;7386295;19;20673;-75
2022/03/17 11:27:47;;;;;;;23.93;17.93;;;13.20;99.90;;;;;;7386969;19;20226;-76
2022/03/17 11:30:14;;;;;;;25.20;18.47;;;13.20;99.90;;;;;;7385930;19;20891;-76
2022/03/17 11:32:55;;;;;;;25.67;19.27;;;13.30;99.90;;;;;;7386798;19;20586;-75
2022/03/17 11:35:25;;;;;;;29.83;19.43;;;13.30;99.90;;;;;;7387075;19;20142;-75
2022/03/17 11:38:13;;;;;;;27.53;18.17;;;13.20;99.90;;;;;;7384685;19;20142;-75
2022/03/17 11:41:01;;;;;;;25.00;17.57;;;13.10;99.90;;;;;;7388926;19;20147;-75
2022/03/17 11:43:37;;;;;;;27.40;17.17;;;13.10;99.90;;;;;;7396244;19;20131;-75
2022/03/17 11:46:14;;;;;;;24.03;16.20;;;13.00;99.90;;;;;;7395058;19;20158;-76
2022/03/17 11:48:42;;;;;;;25.57;16.83;;;12.90;99.90;;;;;;7392960;19;20156;-77
2022/03/17 11:51:10;;;;;;;26.70;17.23;;;12.90;99.90;;;;;;7391399;19;20142;-76
2022/03/17 11:54:03;;;;;;;26.63;17.83;;;12.90;99.90;;;;;;7392420;19;20627;-75
2022/03/17 11:56:37;;;;;;;26.73;17.57;;;12.90;99.90;;;;;;7391459;19;20138;-76
2022/03/17 11:59:07;;;;;;;28.07;17.63;;;12.80;99.90;;;;;;7392519;19;20437;-77
2022/03/17 12:01:35;;;;;;;33.20;19.10;;;12.70;99.90;;;;;;7392069;19;20613;-76
2022/03/17 12:04:03;;;;;;;27.10;17.67;;;12.80;99.90;;;;;;7391290;19;20513;-75
2022/03/17 12:06:39;;;;;;;29.60;17.87;;;12.80;99.90;;;;;;7392848;19;20150;-75
2022/03/17 12:09:08;;;;;;;27.97;17.97;;;12.90;99.90;;;;;;7393806;19;20134;-75
2022/03/17 12:11:39;;;;;;;26.77;17.60;;;12.80;99.90;;;;;;7390565;19;20138;-75
2022/03/17 12:14:13;;;;;;;31.10;17.77;;;12.90;99.90;;;;;;7393074;19;20134;-75
2022/03/17 12:17:15;;;;;;;29.63;19.10;;;12.90;99.90;;;;;;7391832;19;20146;-75
2022/03/17 12:19:48;;;;;;;28.37;19.57;;;13.00;99.90;;;;;;7394469;19;20166;-75
2022/03/17 12:22:16;;;;;;;27.57;19.00;;;13.10;99.90;;;;;;7392227;19;20138;-75
2022/03/17 12:24:57;;;;;;;30.73;19.03;;;13.00;99.90;;;;;;7390767;19;20179;-76
2022/03/17 12:27:35;;;;;;;29.50;19.30;;;13.10;99.90;;;;;;7394687;19;20150;-76
2022/03/17 12:30:02;;;;;;;30.43;19.33;;;13.10;99.90;;;;;;7393627;19;20233;-76
2022/03/17 12:32:40;;;;;;;26.70;18.20;;;13.00;99.90;;;;;;7391517;19;20165;-77
2022/03/17 12:35:09;;;;;;;27.53;19.33;;;13.10;99.90;;;;;;7394227;19;20141;-76
2022/03/17 12:37:44;;;;;;;28.63;19.87;;;13.10;99.90;;;;;;7390823;19;20158;-81
2022/03/17 12:40:20;;;;;;;28.60;19.50;;;13.10;99.90;;;;;;7391382;19;20150;-76
2022/03/17 12:42:47;;;;;;;29.87;19.43;;;13.20;99.90;;;;;;7390500;19;20125;-75
2022/03/17 12:45:21;;;;;;;30.10;19.20;;;13.30;99.90;;;;;;7391902;19;20214;-74
2022/03/17 12:47:52;;;;;;;27.07;18.97;;;13.30;99.90;;;;;;7390158;19;20168;-76
2022/03/17 12:50:20;;;;;;;26.93;19.00;;;13.30;99.90;;;;;;7391663;19;20154;-75
2022/03/17 12:52:47;;;;;;;27.00;19.27;;;13.30;99.90;;;;;;7390020;19;20139;-74